Atlantic Girl — WDD3000 — position and weather

sailwx.info

Track history (hours):
 
Tides and Currents Weather Stations Pressure Air Temp Water Temp Dewpoint Dewpoint Depression Visibility Wind Speed Wind Dir Waves Ship Positions

Atlantic Girl

Owner: Edgar Seafood Products, Inc., Cape May, NJ. More information available from US FCC via Universal Licensing System and Coast Guard Vessel Documentation Center.

Last reported at 2014-Nov-12 12:18 UTC. Time now 2014-Dec-22 09:12 UTC.
Position N 38°43' W 074°42'.
Warning: this ship's position is 39 days out of date.

Length 22 m.

Type: Fishing. MMSI: 367122560.

Date/timePositionNaut miles runAvg speedWind from/ knotsBaromVisibWave heightAir tempDewpointWater temp
2014-Nov-12 12:18N 38°43' W 074°42'8 7.7
2014-Nov-12 11:17N 38°36' W 074°37'15 7.6
2014-Nov-12 09:21N 38°23' W 074°27'7 7.5
2014-Nov-12 08:23N 38°17' W 074°22'7 7.4
2014-Nov-12 07:29N 38°11' W 074°18'4 2.1
2014-Nov-12 05:24N 38°08' W 074°15'  
2014-Nov-05 03:33N 38°11' W 074°57'7 6.1
2014-Nov-05 02:27N 38°05' W 074°53'8 2.5
2014-Nov-04 23:30N 38°13' W 074°50'2 2.2
2014-Nov-04 22:33N 38°15' W 074°50'  
Track history (hours):
 
Tides and Currents Weather Stations Pressure Air Temp Water Temp Dewpoint Dewpoint Depression Visibility Wind Speed Wind Dir Waves Ship Positions

Atlantic Girl

Owner: Edgar Seafood Products, Inc., Cape May, NJ. More information available from US FCC via Universal Licensing System and Coast Guard Vessel Documentation Center.

Last reported at 2014-Nov-12 12:18 UTC. Time now 2014-Dec-22 09:12 UTC.
Position N 38°43' W 074°42'.
Warning: this ship's position is 39 days out of date.

Length 22 m.

Type: Fishing. MMSI: 367122560.

Date/timePositionNaut miles runAvg speedWind from/ knotsBaromVisibWave heightAir tempDewpointWater temp
2014-Nov-12 12:18N 38°43' W 074°42'8 7.7
2014-Nov-12 11:17N 38°36' W 074°37'15 7.6
2014-Nov-12 09:21N 38°23' W 074°27'7 7.5
2014-Nov-12 08:23N 38°17' W 074°22'7 7.4
2014-Nov-12 07:29N 38°11' W 074°18'4 2.1
2014-Nov-12 05:24N 38°08' W 074°15'  
2014-Nov-05 03:33N 38°11' W 074°57'7 6.1
2014-Nov-05 02:27N 38°05' W 074°53'8 2.5
2014-Nov-04 23:30N 38°13' W 074°50'2 2.2
2014-Nov-04 22:33N 38°15' W 074°50'  

Dump ship's entire track history